Time;durP1;ratioP1;P1;durP2;ratioP2;P2;SDS_P1;SDS_P2;PMS_P1;PMS_P2;Temp;Humidity;BMP_temperature;BMP_pressure;BME280_temperature;BME280_humidity;BME280_pressure;Samples;Min_cycle;Max_cycle;Signal;HPM_P1;HPM_P2
2021/01/29 05:45:24;;;;;;;1.30;0.50;;;;;;;;;;6180893;22;884475;-83
2021/01/29 05:48:11;;;;;;;1.58;0.50;;;;;;;;;;6181863;23;20443;-83
2021/01/29 05:50:45;;;;;;;2.58;0.50;;;;;;;;;;6187574;23;20378;-83
2021/01/29 05:53:25;;;;;;;1.33;0.50;;;;;;;;;;6188179;23;20064;-82
2021/01/29 05:56:00;;;;;;;1.20;0.60;;;;;;;;;;6190321;23;20068;-83
2021/01/29 05:58:45;;;;;;;1.70;0.60;;;;;;;;;;6189889;23;20005;-83
2021/01/29 06:01:34;;;;;;;1.40;0.50;;;;;;;;;;6194211;23;20008;-83
2021/01/29 06:04:18;;;;;;;1.13;0.50;;;;;;;;;;6196244;23;19997;-81
2021/01/29 06:06:54;;;;;;;2.05;0.95;;;;;;;;;;6196094;23;20001;-82
2021/01/29 06:09:29;;;;;;;1.35;0.60;;;;;;;;;;6195600;23;20005;-82
2021/01/29 06:12:03;;;;;;;1.30;0.50;;;;;;;;;;6189994;23;20304;-82
2021/01/29 06:14:44;;;;;;;1.25;0.50;;;;;;;;;;6189907;23;20343;-83
2021/01/29 06:17:10;;;;;;;2.20;0.90;;;;;;;;;;6188555;23;20048;-82
2021/01/29 06:19:55;;;;;;;2.15;0.90;;;;;;;;;;6187943;23;20008;-82
2021/01/29 06:22:34;;;;;;;2.22;0.85;;;;;;;;;;6189510;23;20001;-81
2021/01/29 06:25:06;;;;;;;1.80;0.70;;;;;;;;;;6196533;23;20001;-83
2021/01/29 06:27:37;;;;;;;2.83;1.30;;;;;;;;;;6196693;23;20005;-83
2021/01/29 06:30:22;;;;;;;1.50;0.63;;;;;;;;;;6192645;23;20005;-83
2021/01/29 06:33:00;;;;;;;3.47;0.73;;;;;;;;;;6188035;23;20011;-83
2021/01/29 06:35:48;;;;;;;1.65;0.80;;;;;;;;;;6186496;23;20009;-84
2021/01/29 06:40:34;;;;;;;1.77;0.75;;;;;;;;;;5081184;28;20409;-82
2021/01/29 06:43:10;;;;;;;1.90;0.55;;;;;;;;;;5069660;28;20032;-82
2021/01/29 06:45:46;;;;;;;1.30;0.60;;;;;;;;;;5078334;28;20059;-83
2021/01/29 06:48:31;;;;;;;1.65;0.70;;;;;;;;;;5079017;28;20036;-83
2021/01/29 06:51:03;;;;;;;1.20;0.55;;;;;;;;;;5060889;28;20020;-82
2021/01/29 06:53:51;;;;;;;2.08;0.65;;;;;;;;;;5061728;28;20021;-82
2021/01/29 06:56:36;;;;;;;5.95;0.90;;;;;;;;;;5075109;28;20035;-84
2021/01/29 06:59:24;;;;;;;2.05;0.80;;;;;;;;;;5071391;28;20017;-84
2021/01/29 07:01:56;;;;;;;2.50;0.98;;;;;;;;;;5076525;28;20025;-84
2021/01/29 07:04:22;;;;;;;2.13;0.85;;;;;;;;;;5057768;28;20033;-85
2021/01/29 07:06:54;;;;;;;2.70;1.20;;;;;;;;;;5063113;28;20055;-83
2021/01/29 07:09:40;;;;;;;2.60;1.00;;;;;;;;;;5069830;28;20042;-84
2021/01/29 07:12:24;;;;;;;4.72;2.03;;;;;;;;;;5052228;28;20044;-84
2021/01/29 07:14:58;;;;;;;2.45;1.10;;;;;;;;;;5061678;28;20021;-84
2021/01/29 07:17:33;;;;;;;1.27;0.52;;;;;;;;;;5056843;28;20025;-84
2021/01/29 07:20:02;;;;;;;2.20;1.00;;;;;;;;;;5067706;28;20024;-84
2021/01/29 07:22:32;;;;;;;3.67;0.90;;;;;;;;;;5066948;28;20025;-84
2021/01/29 07:25:04;;;;;;;1.50;0.57;;;;;;;;;;5064929;28;20027;-84
2021/01/29 07:27:48;;;;;;;3.58;0.70;;;;;;;;;;5051692;28;20381;-83
2021/01/29 07:30:20;;;;;;;3.13;1.00;;;;;;;;;;5064662;28;20051;-84
2021/01/29 07:33:00;;;;;;;1.77;0.70;;;;;;;;;;5064070;28;20485;-83
2021/01/29 07:35:33;;;;;;;2.75;0.80;;;;;;;;;;5067812;28;20028;-84
2021/01/29 07:38:25;;;;;;;3.92;0.93;;;;;;;;;;5070359;28;20498;-83
2021/01/29 07:40:59;;;;;;;2.97;1.00;;;;;;;;;;5065365;28;20078;-83
2021/01/29 07:43:44;;;;;;;4.03;1.42;;;;;;;;;;5068573;28;20021;-84
2021/01/29 07:46:29;;;;;;;2.92;1.30;;;;;;;;;;5055753;28;20031;-85
2021/01/29 07:49:11;;;;;;;2.10;0.88;;;;;;;;;;5062021;28;20029;-84
2021/01/29 07:51:55;;;;;;;2.72;1.08;;;;;;;;;;5062565;28;20029;-84
2021/01/29 07:54:43;;;;;;;2.45;1.05;;;;;;;;;;5046351;28;20029;-84
2021/01/29 07:57:28;;;;;;;2.10;1.00;;;;;;;;;;5050890;28;20052;-84
2021/01/29 07:59:53;;;;;;;2.92;1.15;;;;;;;;;;5056115;28;20410;-84
2021/01/29 08:02:28;;;;;;;4.95;1.55;;;;;;;;;;5054110;28;20029;-84
2021/01/29 08:04:54;;;;;;;7.63;4.43;;;;;;;;;;5055642;28;20081;-84
2021/01/29 08:07:23;;;;;;;8.15;3.90;;;;;;;;;;5054577;28;20029;-84
2021/01/29 08:09:58;;;;;;;4.72;1.67;;;;;;;;;;5056423;28;20032;-84
2021/01/29 08:12:25;;;;;;;3.80;1.98;;;;;;;;;;5066633;28;20051;-84
2021/01/29 08:15:10;;;;;;;3.75;1.63;;;;;;;;;;5055853;28;20143;-84
2021/01/29 08:17:58;;;;;;;4.65;1.20;;;;;;;;;;5051345;28;20029;-84
2021/01/29 08:20:40;;;;;;;3.00;1.20;;;;;;;;;;5058562;28;20025;-84
2021/01/29 08:23:18;;;;;;;4.95;1.52;;;;;;;;;;5058441;28;20575;-84
2021/01/29 08:26:05;;;;;;;3.75;1.05;;;;;;;;;;5043922;28;20016;-84
2021/01/29 08:29:09;;;;;;;4.43;1.77;;;;;;;;;;5054470;28;20017;-84
2021/01/29 08:31:46;;;;;;;4.10;1.20;;;;;;;;;;5043630;28;20033;-84
2021/01/29 08:34:31;;;;;;;3.78;1.40;;;;;;;;;;5016968;28;20033;-84
2021/01/29 08:37:14;;;;;;;11.32;2.42;;;;;;;;;;5036100;28;20033;-84
2021/01/29 08:39:46;;;;;;;6.28;2.28;;;;;;;;;;5060746;28;20481;-84
2021/01/29 08:42:12;;;;;;;6.47;1.90;;;;;;;;;;5052501;28;20075;-84
2021/01/29 08:44:46;;;;;;;10.65;1.40;;;;;;;;;;5045623;28;20438;-84
2021/01/29 08:47:23;;;;;;;6.68;1.98;;;;;;;;;;5059289;28;20054;-84
2021/01/29 08:50:08;;;;;;;9.02;2.17;;;;;;;;;;5043350;28;20056;-84
2021/01/29 08:52:49;;;;;;;8.20;1.80;;;;;;;;;;5055266;28;20090;-86
2021/01/29 08:55:15;;;;;;;7.35;2.60;;;;;;;;;;5054600;28;20028;-84
2021/01/29 08:57:47;;;;;;;6.50;2.38;;;;;;;;;;5057096;28;20041;-84
2021/01/29 09:00:21;;;;;;;8.90;3.60;;;;;;;;;;5060249;28;20027;-84
2021/01/29 09:03:07;;;;;;;5.60;2.08;;;;;;;;;;5062765;28;20028;-84
2021/01/29 09:05:33;;;;;;;7.63;2.58;;;;;;;;;;5053011;28;20029;-84
2021/01/29 09:07:59;;;;;;;8.48;1.98;;;;;;;;;;5062740;28;20044;-85
2021/01/29 09:10:34;;;;;;;9.73;1.75;;;;;;;;;;5047760;28;20039;-83
2021/01/29 09:13:05;;;;;;;7.00;2.15;;;;;;;;;;5043369;28;20024;-83
2021/01/29 09:15:39;;;;;;;11.95;2.00;;;;;;;;;;5047052;28;20056;-84
2021/01/29 09:18:31;;;;;;;5.70;2.28;;;;;;;;;;5047144;28;20511;-84
2021/01/29 09:21:05;;;;;;;5.28;1.95;;;;;;;;;;5039112;28;20090;-84
2021/01/29 09:23:34;;;;;;;9.00;2.00;;;;;;;;;;5050743;28;20043;-84
2021/01/29 09:26:05;;;;;;;13.27;2.78;;;;;;;;;;5060329;28;20031;-83
2021/01/29 09:28:31;;;;;;;7.80;2.58;;;;;;;;;;5063155;28;20036;-84
2021/01/29 09:30:59;;;;;;;13.63;2.40;;;;;;;;;;5046835;28;20013;-84
2021/01/29 09:33:47;;;;;;;9.48;3.03;;;;;;;;;;5047124;28;20043;-83
2021/01/29 09:36:26;;;;;;;8.55;2.55;;;;;;;;;;5055530;28;20020;-83
2021/01/29 09:39:11;;;;;;;7.80;3.22;;;;;;;;;;5049940;28;20033;-83
2021/01/29 09:41:41;;;;;;;11.82;2.20;;;;;;;;;;5048304;28;20036;-84
2021/01/29 09:46:27;;;;;;;11.15;3.35;;;;;;;;;;5053690;28;20362;-84
2021/01/29 09:48:59;;;;;;;9.32;3.47;;;;;;;;;;5040161;28;20033;-84
2021/01/29 09:51:35;;;;;;;15.63;3.10;;;;;;;;;;5037370;28;20358;-85
2021/01/29 09:54:23;;;;;;;8.68;2.88;;;;;;;;;;5038431;28;20071;-85
2021/01/29 09:57:00;;;;;;;14.18;3.47;;;;;;;;;;5037629;28;20056;-85
2021/01/29 09:59:46;;;;;;;10.68;3.47;;;;;;;;;;5032908;28;20021;-85
2021/01/29 10:02:14;;;;;;;13.95;3.58;;;;;;;;;;5031199;28;20025;-85
2021/01/29 10:04:58;;;;;;;10.45;3.75;;;;;;;;;;5038735;28;20075;-85
2021/01/29 10:07:25;;;;;;;13.48;4.10;;;;;;;;;;5044088;28;20021;-84
2021/01/29 10:10:00;;;;;;;8.52;2.42;;;;;;;;;;5044707;28;20500;-83
2021/01/29 10:12:26;;;;;;;9.75;3.63;;;;;;;;;;5039955;28;20504;-84
2021/01/29 10:14:55;;;;;;;12.52;4.53;;;;;;;;;;5034092;28;20053;-85
2021/01/29 10:17:41;;;;;;;13.93;4.95;;;;;;;;;;5036786;28;20064;-85
2021/01/29 10:20:11;;;;;;;11.98;2.67;;;;;;;;;;5040768;28;20746;-85
2021/01/29 10:22:57;;;;;;;10.52;2.95;;;;;;;;;;5038932;28;20057;-85
2021/01/29 10:25:25;;;;;;;9.48;3.22;;;;;;;;;;5038081;28;20021;-85
2021/01/29 10:28:06;;;;;;;11.25;4.28;;;;;;;;;;5039513;28;20021;-85
2021/01/29 10:30:35;;;;;;;10.48;4.95;;;;;;;;;;5040658;28;20021;-85
2021/01/29 10:33:07;;;;;;;9.63;3.95;;;;;;;;;;5040123;28;20017;-85
2021/01/29 10:35:42;;;;;;;10.50;3.25;;;;;;;;;;5037039;28;20029;-85
2021/01/29 10:38:17;;;;;;;11.30;2.90;;;;;;;;;;5033051;28;20026;-85
2021/01/29 10:41:04;;;;;;;14.60;5.95;;;;;;;;;;5040054;28;20523;-85
2021/01/29 10:43:30;;;;;;;19.15;4.45;;;;;;;;;;5039519;28;20022;-85
2021/01/29 10:46:07;;;;;;;14.80;5.05;;;;;;;;;;5039534;28;20067;-85
2021/01/29 10:49:00;;;;;;;18.83;5.85;;;;;;;;;;5036985;28;20079;-85
2021/01/29 10:51:31;;;;;;;13.07;4.82;;;;;;;;;;5037457;28;20087;-85
2021/01/29 10:53:57;;;;;;;;;;;;;;;;;;5040979;28;20359;-85
2021/01/29 10:56:24;;;;;;;13.55;2.67;;;;;;;;;;5033475;28;19920;-85
2021/01/29 10:59:09;;;;;;;10.60;2.72;;;;;;;;;;5015085;28;20030;-85
2021/01/29 11:01:37;;;;;;;13.00;4.18;;;;;;;;;;5022677;28;20714;-85
2021/01/29 11:04:08;;;;;;;15.95;3.03;;;;;;;;;;5028273;28;20061;-85
2021/01/29 11:06:43;;;;;;;6.50;1.90;;;;;;;;;;5021136;28;20049;-85
2021/01/29 11:09:15;;;;;;;10.15;2.83;;;;;;;;;;5027746;28;20030;-85
2021/01/29 11:11:43;;;;;;;9.07;2.70;;;;;;;;;;5029826;28;20017;-85
2021/01/29 11:14:44;;;;;;;9.07;2.20;;;;;;;;;;5029814;28;20076;-85
2021/01/29 11:17:23;;;;;;;9.75;2.53;;;;;;;;;;5023450;28;20032;-85
2021/01/29 11:19:50;;;;;;;7.75;2.72;;;;;;;;;;5036822;28;20025;-85
2021/01/29 11:22:16;;;;;;;9.27;2.35;;;;;;;;;;5030185;28;20021;-85
2021/01/29 11:24:44;;;;;;;15.13;3.30;;;;;;;;;;5019278;28;20496;-85
2021/01/29 11:27:13;;;;;;;9.35;2.30;;;;;;;;;;5023481;28;20632;-85
2021/01/29 11:29:50;;;;;;;9.20;2.05;;;;;;;;;;5026105;28;20113;-85
2021/01/29 11:32:24;;;;;;;7.63;1.85;;;;;;;;;;5028617;28;20028;-83
2021/01/29 11:35:20;;;;;;;7.15;2.20;;;;;;;;;;5024654;28;20087;-85
2021/01/29 11:37:58;;;;;;;9.02;2.58;;;;;;;;;;5024997;28;20056;-85
2021/01/29 11:40:40;;;;;;;11.75;2.53;;;;;;;;;;5025306;28;20088;-85
2021/01/29 11:43:29;;;;;;;8.50;2.95;;;;;;;;;;5018941;28;20034;-85
2021/01/29 11:45:58;;;;;;;10.05;3.10;;;;;;;;;;5028196;28;20437;-85
2021/01/29 11:48:30;;;;;;;10.80;2.42;;;;;;;;;;5027551;28;20439;-83
2021/01/29 11:53:20;;;;;;;10.85;2.70;;;;;;;;;;5117417;27;20908;-83
2021/01/29 11:55:51;;;;;;;13.40;2.42;;;;;;;;;;5102450;28;20075;-83
2021/01/29 11:58:21;;;;;;;9.55;2.85;;;;;;;;;;5110187;28;20758;-82
2021/01/29 12:03:50;;;;;;;75.03;37.28;;;;;;;;;;5055373;28;20056;-83
2021/01/29 12:06:19;;;;;;;44.05;22.33;;;;;;;;;;5043931;28;20030;-82
2021/01/29 12:08:50;;;;;;;17.00;4.30;;;;;;;;;;5048076;28;20060;-81
2021/01/29 12:11:42;;;;;;;27.13;10.77;;;;;;;;;;5067035;28;20033;-82
2021/01/29 12:14:14;;;;;;;128.50;70.00;;;;;;;;;;5051086;28;20029;-83
2021/01/29 12:16:40;;;;;;;28.33;15.45;;;;;;;;;;5074026;28;20017;-83
2021/01/29 12:19:08;;;;;;;16.15;5.07;;;;;;;;;;5073508;28;20032;-83
2021/01/29 12:21:37;;;;;;;19.70;7.43;;;;;;;;;;5069960;28;20392;-82
2021/01/29 12:24:13;;;;;;;11.70;4.57;;;;;;;;;;5090175;28;20029;-82
2021/01/29 12:26:42;;;;;;;23.17;9.88;;;;;;;;;;5066968;28;20503;-83
2021/01/29 12:29:12;;;;;;;9.13;4.10;;;;;;;;;;5074849;28;20024;-82
2021/01/29 12:31:41;;;;;;;9.75;3.42;;;;;;;;;;5091511;28;20032;-80
2021/01/29 12:34:10;;;;;;;7.97;2.15;;;;;;;;;;5072689;28;20031;-81
2021/01/29 12:36:37;;;;;;;6.50;2.08;;;;;;;;;;5077381;28;20013;-82
2021/01/29 12:39:12;;;;;;;5.57;2.10;;;;;;;;;;5075405;28;20028;-82
2021/01/29 12:41:50;;;;;;;11.45;3.42;;;;;;;;;;5076019;28;20024;-81
2021/01/29 12:44:34;;;;;;;7.82;2.35;;;;;;;;;;5085386;28;20028;-81
2021/01/29 12:47:12;;;;;;;6.57;1.67;;;;;;;;;;5072550;28;20020;-82
2021/01/29 12:49:41;;;;;;;7.00;1.83;;;;;;;;;;5071741;28;20078;-81
2021/01/29 12:52:13;;;;;;;12.15;2.03;;;;;;;;;;5068743;28;20060;-82
2021/01/29 12:54:48;;;;;;;6.65;1.77;;;;;;;;;;5070045;28;20029;-81
2021/01/29 12:57:18;;;;;;;7.05;1.63;;;;;;;;;;5071634;28;20024;-81
2021/01/29 12:59:46;;;;;;;9.27;2.13;;;;;;;;;;5070254;28;20020;-80
2021/01/29 13:02:47;;;;;;;4.63;2.20;;;;;;;;;;5071438;28;20037;-81
2021/01/29 13:05:27;;;;;;;11.80;2.53;;;;;;;;;;5012713;28;20061;-82
2021/01/29 13:07:53;;;;;;;6.07;1.87;;;;;;;;;;5046300;28;20040;-81
2021/01/29 13:10:19;;;;;;;5.82;1.73;;;;;;;;;;5047904;28;20255;-81
2021/01/29 13:12:54;;;;;;;9.43;1.88;;;;;;;;;;5052338;28;20030;-81
2021/01/29 13:15:24;;;;;;;4.20;1.45;;;;;;;;;;5054816;28;20095;-81
2021/01/29 13:17:58;;;;;;;7.15;1.73;;;;;;;;;;5053700;28;20429;-81
2021/01/29 13:20:27;;;;;;;7.00;2.17;;;;;;;;;;5052051;28;20734;-81
2021/01/29 13:22:55;;;;;;;5.90;1.75;;;;;;;;;;5048456;28;20111;-81
2021/01/29 13:25:28;;;;;;;7.10;1.63;;;;;;;;;;5052960;28;20554;-81
2021/01/29 13:28:02;;;;;;;7.57;1.70;;;;;;;;;;5055195;28;20071;-82
2021/01/29 13:30:30;;;;;;;6.32;1.40;;;;;;;;;;5052049;28;20117;-82
2021/01/29 13:32:57;;;;;;;5.32;1.98;;;;;;;;;;5055328;28;20032;-81
2021/01/29 13:35:25;;;;;;;5.13;1.40;;;;;;;;;;5053927;28;20017;-82
2021/01/29 13:37:51;;;;;;;5.82;1.42;;;;;;;;;;5050643;28;20469;-82
2021/01/29 13:40:25;;;;;;;6.47;1.85;;;;;;;;;;5052560;28;20021;-82
2021/01/29 13:42:51;;;;;;;4.10;1.77;;;;;;;;;;5053610;28;20032;-81
2021/01/29 13:45:23;;;;;;;14.65;5.28;;;;;;;;;;5053914;28;20036;-82
2021/01/29 13:47:59;;;;;;;4.88;1.80;;;;;;;;;;5050308;28;20051;-81
2021/01/29 13:50:34;;;;;;;4.20;1.60;;;;;;;;;;5046236;28;20021;-81
2021/01/29 13:53:01;;;;;;;4.72;1.40;;;;;;;;;;5054006;28;20523;-81
2021/01/29 13:55:36;;;;;;;3.35;1.15;;;;;;;;;;5054798;28;20028;-81
2021/01/29 13:58:31;;;;;;;3.58;1.17;;;;;;;;;;5055007;28;20076;-82
2021/01/29 14:01:09;;;;;;;2.65;1.20;;;;;;;;;;5043243;28;20060;-81
2021/01/29 14:03:37;;;;;;;4.40;1.25;;;;;;;;;;5054073;28;20043;-79
2021/01/29 14:08:22;;;;;;;2.55;1.13;;;;;;;;;;5087791;28;20381;-79
2021/01/29 14:11:01;;;;;;;2.88;1.30;;;;;;;;;;5068504;28;20097;-79
2021/01/29 14:13:45;;;;;;;4.80;2.20;;;;;;;;;;5071434;28;20028;-80
2021/01/29 14:18:38;;;;;;;4.80;2.00;;;;;;;;;;5112089;27;20381;-78
2021/01/29 14:21:12;;;;;;;4.07;2.05;;;;;;;;;;5105300;28;20562;-79
2021/01/29 14:23:42;;;;;;;8.02;3.30;;;;;;;;;;5094609;28;20484;-78
2021/01/29 14:26:27;;;;;;;4.63;1.88;;;;;;;;;;5106216;28;20024;-79
2021/01/29 14:29:14;;;;;;;5.55;2.72;;;;;;;;;;5098077;28;20028;-80
2021/01/29 14:32:02;;;;;;;6.82;2.78;;;;;;;;;;5094579;28;20024;-80
2021/01/29 14:34:46;;;;;;;7.38;3.92;;;;;;;;;;5096749;28;20090;-78
2021/01/29 14:37:30;;;;;;;15.15;4.70;;;;;;;;;;5099437;28;20020;-79
2021/01/29 14:40:08;;;;;;;9.85;4.30;;;;;;;;;;5096262;28;20028;-76
2021/01/29 14:42:41;;;;;;;5.47;3.05;;;;;;;;;;5099289;28;20215;-79
2021/01/29 14:45:10;;;;;;;9.88;2.72;;;;;;;;;;5101927;28;20024;-78
2021/01/29 14:47:35;;;;;;;7.13;2.70;;;;;;;;;;5098790;28;21545;-78
2021/01/29 14:50:01;;;;;;;4.63;1.77;;;;;;;;;;5102045;28;20032;-80
2021/01/29 14:52:42;;;;;;;5.75;2.25;;;;;;;;;;5098780;28;20025;-78
2021/01/29 14:55:10;;;;;;;11.00;3.92;;;;;;;;;;5101655;28;20031;-78
2021/01/29 14:57:35;;;;;;;8.13;3.05;;;;;;;;;;5100886;28;20024;-78
2021/01/29 15:00:05;;;;;;;4.70;2.42;;;;;;;;;;5096462;28;20031;-80
2021/01/29 15:02:53;;;;;;;5.43;2.95;;;;;;;;;;5091764;28;20020;-80
2021/01/29 15:05:28;;;;;;;8.75;3.55;;;;;;;;;;5099984;28;20042;-82
2021/01/29 15:07:55;;;;;;;5.75;2.90;;;;;;;;;;5094637;28;20060;-80
2021/01/29 15:10:22;;;;;;;9.93;3.15;;;;;;;;;;5097809;28;20039;-79
2021/01/29 15:12:49;;;;;;;11.75;4.95;;;;;;;;;;5096182;28;20098;-81
2021/01/29 15:15:20;;;;;;;11.88;4.45;;;;;;;;;;5093629;28;20051;-79
2021/01/29 15:17:57;;;;;;;10.65;4.28;;;;;;;;;;5101107;28;20384;-79
2021/01/29 15:20:29;;;;;;;41.30;22.40;;;;;;;;;;5089911;28;20207;-80
2021/01/29 15:23:13;;;;;;;45.50;24.58;;;;;;;;;;5094774;28;20035;-81
2021/01/29 15:26:00;;;;;;;65.40;35.95;;;;;;;;;;5091214;28;20020;-80
2021/01/29 15:28:29;;;;;;;35.40;21.20;;;;;;;;;;5094409;28;20038;-78
2021/01/29 15:30:55;;;;;;;9.32;4.78;;;;;;;;;;5084892;28;20024;-81
2021/01/29 15:33:30;;;;;;;9.73;4.97;;;;;;;;;;5087517;28;20027;-81
2021/01/29 15:36:14;;;;;;;9.15;2.92;;;;;;;;;;5083402;28;20028;-79
2021/01/29 15:38:46;;;;;;;6.22;3.35;;;;;;;;;;5077369;28;20016;-79
2021/01/29 15:41:27;;;;;;;6.95;2.85;;;;;;;;;;5082553;28;20383;-82
2021/01/29 15:43:54;;;;;;;3.95;2.08;;;;;;;;;;5078537;28;20036;-80
2021/01/29 15:46:43;;;;;;;10.05;5.45;;;;;;;;;;5073381;28;20035;-78
2021/01/29 15:49:29;;;;;;;9.27;4.32;;;;;;;;;;5073281;28;20035;-79
2021/01/29 15:52:04;;;;;;;10.63;3.92;;;;;;;;;;5067957;28;20024;-78
2021/01/29 15:54:38;;;;;;;6.90;3.92;;;;;;;;;;5078465;28;20055;-79
2021/01/29 15:57:36;;;;;;;4.97;2.70;;;;;;;;;;5082656;28;20024;-80
2021/01/29 16:00:06;;;;;;;5.53;3.03;;;;;;;;;;5049222;28;20498;-79
2021/01/29 16:02:41;;;;;;;5.95;2.80;;;;;;;;;;5082740;28;20046;-78
2021/01/29 16:05:19;;;;;;;7.88;3.67;;;;;;;;;;5080581;28;20020;-79
2021/01/29 16:07:53;;;;;;;16.80;8.15;;;;;;;;;;5089636;28;20048;-77
2021/01/29 16:10:19;;;;;;;10.98;6.95;;;;;;;;;;5092097;28;20036;-80
2021/01/29 16:12:48;;;;;;;16.38;6.00;;;;;;;;;;5087034;28;20079;-79
2021/01/29 16:17:32;;;;;;;12.05;6.40;;;;;;;;;;5121421;27;20402;-80
2021/01/29 16:20:09;;;;;;;15.95;6.47;;;;;;;;;;5106465;28;20484;-83
2021/01/29 16:22:35;;;;;;;12.35;6.95;;;;;;;;;;5094591;28;20043;-80
2021/01/29 16:25:02;;;;;;;9.75;5.28;;;;;;;;;;5088867;28;20712;-79
2021/01/29 16:27:31;;;;;;;13.23;5.78;;;;;;;;;;5086770;28;20024;-79
2021/01/29 16:29:57;;;;;;;16.02;8.52;;;;;;;;;;5095090;28;20073;-81
2021/01/29 16:32:25;;;;;;;18.27;8.40;;;;;;;;;;5093224;28;20772;-79
2021/01/29 16:34:51;;;;;;;16.00;7.90;;;;;;;;;;5093596;28;20047;-81
2021/01/29 16:37:18;;;;;;;14.43;7.20;;;;;;;;;;5099406;28;20051;-80
2021/01/29 16:39:45;;;;;;;14.35;4.45;;;;;;;;;;5098611;28;20468;-78
2021/01/29 16:42:11;;;;;;;9.13;3.55;;;;;;;;;;5110157;28;20099;-78
2021/01/29 16:44:43;;;;;;;10.27;3.58;;;;;;;;;;5103027;28;20020;-78
2021/01/29 16:47:13;;;;;;;10.82;4.78;;;;;;;;;;5113107;28;20024;-81
2021/01/29 16:49:39;;;;;;;22.23;11.85;;;;;;;;;;5108004;28;20024;-79
2021/01/29 16:52:05;;;;;;;18.20;12.95;;;;;;;;;;5102002;28;20193;-78
2021/01/29 16:54:35;;;;;;;12.93;7.00;;;;;;;;;;5101407;28;20116;-79
2021/01/29 16:57:02;;;;;;;11.23;4.85;;;;;;;;;;5103439;28;20035;-78
2021/01/29 16:59:27;;;;;;;8.38;3.55;;;;;;;;;;5105144;28;20387;-80
2021/01/29 17:01:53;;;;;;;10.63;4.07;;;;;;;;;;5098003;28;20032;-80
2021/01/29 17:04:20;;;;;;;7.97;5.00;;;;;;;;;;5101599;28;20079;-79
2021/01/29 17:06:54;;;;;;;8.75;3.50;;;;;;;;;;5095477;28;20751;-79
2021/01/29 17:09:22;;;;;;;10.45;7.07;;;;;;;;;;5104993;28;20030;-78
2021/01/29 17:11:48;;;;;;;10.88;5.63;;;;;;;;;;5094630;28;20035;-79
2021/01/29 17:14:16;;;;;;;8.23;4.78;;;;;;;;;;5094472;28;20044;-78
2021/01/29 17:16:55;;;;;;;11.23;4.28;;;;;;;;;;5094730;28;20388;-78
2021/01/29 17:19:24;;;;;;;9.65;4.05;;;;;;;;;;5088549;28;20477;-78
2021/01/29 17:21:53;;;;;;;6.78;2.30;;;;;;;;;;5093456;28;20028;-80
2021/01/29 17:24:23;;;;;;;6.72;2.42;;;;;;;;;;5089551;28;20488;-80
2021/01/29 17:26:50;;;;;;;9.57;3.25;;;;;;;;;;5087890;28;20388;-79
2021/01/29 17:29:17;;;;;;;15.77;8.27;;;;;;;;;;5076026;28;20056;-77
2021/01/29 17:31:43;;;;;;;7.10;3.45;;;;;;;;;;5073814;28;20052;-79
2021/01/29 17:34:20;;;;;;;6.80;2.45;;;;;;;;;;5075970;28;20040;-78
2021/01/29 17:36:47;;;;;;;13.10;2.58;;;;;;;;;;5081471;28;20024;-79
2021/01/29 17:41:30;;;;;;;6.85;2.22;;;;;;;;;;5111232;27;20406;-78
2021/01/29 17:44:12;;;;;;;5.70;2.10;;;;;;;;;;5099137;28;20036;-79
2021/01/29 17:46:38;;;;;;;10.27;2.53;;;;;;;;;;5093184;28;20070;-80
2021/01/29 17:49:05;;;;;;;8.05;2.78;;;;;;;;;;5093751;28;20043;-80
2021/01/29 17:51:32;;;;;;;7.50;2.13;;;;;;;;;;5096416;28;20051;-78
2021/01/29 17:54:02;;;;;;;6.75;2.33;;;;;;;;;;5101426;28;20032;-78
2021/01/29 17:56:33;;;;;;;7.90;2.75;;;;;;;;;;5101052;28;20028;-79
2021/01/29 17:58:58;;;;;;;10.10;3.67;;;;;;;;;;5099500;28;20024;-77
2021/01/29 18:01:26;;;;;;;10.88;3.20;;;;;;;;;;5094558;28;20058;-80
2021/01/29 18:03:57;;;;;;;9.52;3.47;;;;;;;;;;5099642;28;20050;-80
2021/01/29 18:06:52;;;;;;;9.82;3.35;;;;;;;;;;5100121;28;20052;-80
2021/01/29 18:09:23;;;;;;;9.93;5.07;;;;;;;;;;5092169;28;20082;-79
2021/01/29 18:11:57;;;;;;;16.75;5.10;;;;;;;;;;5097817;28;20020;-78
2021/01/29 18:14:24;;;;;;;7.68;2.80;;;;;;;;;;5098612;28;20049;-78
2021/01/29 18:16:50;;;;;;;6.05;3.03;;;;;;;;;;5103679;28;20022;-79
2021/01/29 18:19:16;;;;;;;16.02;7.00;;;;;;;;;;5098413;28;20099;-79
2021/01/29 18:21:43;;;;;;;32.92;12.63;;;;;;;;;;5102994;28;20037;-80
2021/01/29 18:24:12;;;;;;;17.42;6.78;;;;;;;;;;5099981;28;20059;-78
2021/01/29 18:26:38;;;;;;;15.10;6.85;;;;;;;;;;5101377;28;20031;-79
2021/01/29 18:29:05;;;;;;;12.65;6.53;;;;;;;;;;5104597;28;20039;-79
2021/01/29 18:31:32;;;;;;;9.18;3.33;;;;;;;;;;5104248;27;20043;-80
2021/01/29 18:34:00;;;;;;;12.18;4.53;;;;;;;;;;5099231;28;20031;-80
2021/01/29 18:36:26;;;;;;;11.98;3.95;;;;;;;;;;5090327;28;20039;-80
2021/01/29 18:38:53;;;;;;;10.68;3.47;;;;;;;;;;5096536;28;20032;-80
2021/01/29 18:41:19;;;;;;;8.85;3.85;;;;;;;;;;5100515;28;20020;-80
2021/01/29 18:43:45;;;;;;;16.38;5.82;;;;;;;;;;5098820;28;20028;-81
2021/01/29 18:46:11;;;;;;;22.88;9.68;;;;;;;;;;5092203;28;20054;-80
2021/01/29 18:48:37;;;;;;;18.77;5.38;;;;;;;;;;5098073;28;20020;-79
2021/01/29 18:51:03;;;;;;;10.85;4.25;;;;;;;;;;5093753;28;20412;-80
2021/01/29 18:53:29;;;;;;;13.15;5.00;;;;;;;;;;5085193;28;20024;-79
2021/01/29 18:55:55;;;;;;;10.50;4.85;;;;;;;;;;5086502;28;20016;-80
2021/01/29 18:58:21;;;;;;;11.18;5.82;;;;;;;;;;5085600;28;20096;-78
2021/01/29 19:00:46;;;;;;;17.17;7.95;;;;;;;;;;5083605;28;20036;-78
2021/01/29 19:03:12;;;;;;;10.07;5.78;;;;;;;;;;5082375;28;20039;-76
2021/01/29 19:05:38;;;;;;;18.08;9.38;;;;;;;;;;5090070;28;20043;-76
2021/01/29 19:08:06;;;;;;;31.15;16.27;;;;;;;;;;5081507;28;20051;-79
2021/01/29 19:10:33;;;;;;;45.60;24.08;;;;;;;;;;5083801;28;20033;-78
2021/01/29 19:12:59;;;;;;;25.52;11.40;;;;;;;;;;5084777;28;20024;-77
2021/01/29 19:15:24;;;;;;;27.70;14.13;;;;;;;;;;5085321;28;20111;-80
2021/01/29 19:17:50;;;;;;;18.00;11.05;;;;;;;;;;5085897;28;20029;-79
2021/01/29 19:20:17;;;;;;;22.70;9.50;;;;;;;;;;5082942;28;20029;-80
2021/01/29 19:22:43;;;;;;;21.27;9.05;;;;;;;;;;5079560;28;20377;-76
2021/01/29 19:25:10;;;;;;;27.48;10.10;;;;;;;;;;5081103;28;20020;-78
2021/01/29 19:27:35;;;;;;;25.48;11.48;;;;;;;;;;5081120;28;20579;-79
2021/01/29 19:30:01;;;;;;;12.05;4.57;;;;;;;;;;5081461;28;20032;-78
2021/01/29 19:32:31;;;;;;;18.73;8.73;;;;;;;;;;5083102;28;20043;-79
2021/01/29 19:34:56;;;;;;;16.45;7.35;;;;;;;;;;5081821;28;20036;-80
2021/01/29 19:37:22;;;;;;;16.58;5.35;;;;;;;;;;5086269;28;20388;-79
2021/01/29 19:39:48;;;;;;;21.98;10.98;;;;;;;;;;5084973;28;20021;-79
2021/01/29 19:42:14;;;;;;;16.27;7.32;;;;;;;;;;5083755;28;20088;-77
2021/01/29 19:44:41;;;;;;;23.05;9.18;;;;;;;;;;5081278;28;20055;-79
2021/01/29 19:47:07;;;;;;;15.98;7.28;;;;;;;;;;5080084;28;20029;-78
2021/01/29 19:49:33;;;;;;;11.15;4.30;;;;;;;;;;5078005;28;20028;-80
2021/01/29 19:51:58;;;;;;;10.07;5.15;;;;;;;;;;5076967;28;20052;-80
2021/01/29 19:56:43;;;;;;;7.07;3.35;;;;;;;;;;5069375;28;20383;-78
2021/01/29 19:59:08;;;;;;;10.52;3.88;;;;;;;;;;5077874;28;20077;-80
2021/01/29 20:01:34;;;;;;;13.77;8.07;;;;;;;;;;5075998;28;20084;-80
2021/01/29 20:04:01;;;;;;;13.38;6.82;;;;;;;;;;5081317;28;20031;-80
2021/01/29 20:06:31;;;;;;;11.75;6.05;;;;;;;;;;5066807;28;20033;-78
2021/01/29 20:08:57;;;;;;;48.35;24.00;;;;;;;;;;5067611;28;20050;-79
2021/01/29 20:11:22;;;;;;;49.97;22.55;;;;;;;;;;5056799;28;20806;-78
2021/01/29 20:13:48;;;;;;;42.60;16.90;;;;;;;;;;5061873;28;20521;-77
2021/01/29 20:16:14;;;;;;;117.50;47.35;;;;;;;;;;5056867;28;20556;-78
2021/01/29 20:18:40;;;;;;;73.13;29.05;;;;;;;;;;5063087;28;20060;-80
2021/01/29 20:21:05;;;;;;;19.95;9.32;;;;;;;;;;5065955;28;20159;-79
2021/01/29 20:23:31;;;;;;;13.48;7.10;;;;;;;;;;5061098;28;20024;-80
2021/01/29 20:25:57;;;;;;;11.30;6.18;;;;;;;;;;5066548;28;20021;-78
2021/01/29 20:28:24;;;;;;;8.23;4.25;;;;;;;;;;5063191;28;20120;-80
2021/01/29 20:30:51;;;;;;;10.15;3.10;;;;;;;;;;5064657;28;20056;-80
2021/01/29 20:33:17;;;;;;;7.88;4.25;;;;;;;;;;5061330;28;20025;-78
2021/01/29 20:38:01;;;;;;;7.13;2.65;;;;;;;;;;5079653;28;20429;-80
2021/01/29 20:40:28;;;;;;;6.43;2.40;;;;;;;;;;5065037;28;20040;-78
2021/01/29 20:42:53;;;;;;;6.07;2.53;;;;;;;;;;5055728;28;20041;-78
2021/01/29 20:45:21;;;;;;;3.97;1.75;;;;;;;;;;5059547;28;20099;-79
2021/01/29 20:47:46;;;;;;;5.00;2.20;;;;;;;;;;5054405;28;20029;-77
2021/01/29 20:50:18;;;;;;;4.22;1.40;;;;;;;;;;5062675;28;20103;-80
2021/01/29 20:52:44;;;;;;;3.47;1.40;;;;;;;;;;5062763;28;20033;-78
2021/01/29 20:55:10;;;;;;;5.22;1.42;;;;;;;;;;5049626;28;20496;-79
2021/01/29 20:57:36;;;;;;;2.65;1.40;;;;;;;;;;5050754;28;20490;-78
2021/01/29 21:00:05;;;;;;;2.83;1.45;;;;;;;;;;5058856;28;20029;-78
2021/01/29 21:04:49;;;;;;;3.30;1.48;;;;;;;;;;5123193;27;20382;-78
2021/01/29 21:07:15;;;;;;;3.15;1.40;;;;;;;;;;5112265;27;20036;-77
2021/01/29 21:09:40;;;;;;;8.65;3.00;;;;;;;;;;5118261;28;20028;-78
2021/01/29 21:12:06;;;;;;;6.47;2.60;;;;;;;;;;5111424;27;20499;-79
2021/01/29 21:14:32;;;;;;;5.15;2.67;;;;;;;;;;5117656;28;20034;-79
2021/01/29 21:16:58;;;;;;;3.58;1.33;;;;;;;;;;5099354;28;20024;-79
2021/01/29 21:21:42;;;;;;;5.57;2.00;;;;;;;;;;5119815;27;20357;-78
2021/01/29 21:24:08;;;;;;;3.92;1.60;;;;;;;;;;5128673;27;20034;-79